Time;durP1;ratioP1;P1;durP2;ratioP2;P2;SDS_P1;SDS_P2;PMS_P1;PMS_P2;Temp;Humidity;BMP_temperature;BMP_pressure;BME280_temperature;BME280_humidity;BME280_pressure;Samples;Min_cycle;Max_cycle;Signal;HPM_P1;HPM_P2
2022/11/05 00:10:47;;;;;;;2.25;1.15;;;10.40;99.90;;;;;;4971223;28;20085;-70
2022/11/05 00:18:42;;;;;;;2.25;1.73;;;10.50;99.90;;;;;;4972072;28;20046;-71
2022/11/05 00:25:12;;;;;;;7.45;2.22;;;10.50;99.90;;;;;;4971913;28;20076;-71
2022/11/05 00:26:38;;;;;;;11.27;3.28;;;10.60;99.90;;;;;;4971662;28;20582;-71
2022/11/05 00:29:03;;;;;;;4.40;2.10;;;10.60;99.90;;;;;;4972266;28;20030;-70
2022/11/05 00:31:31;;;;;;;4.90;2.38;;;10.60;99.90;;;;;;4971809;28;20109;-70
2022/11/05 00:33:56;;;;;;;2.50;1.77;;;10.60;99.90;;;;;;4970275;28;20085;-71
2022/11/05 00:36:22;;;;;;;4.38;1.55;;;10.60;99.90;;;;;;4971702;28;20034;-71
2022/11/05 00:38:48;;;;;;;3.70;1.65;;;10.60;99.90;;;;;;4971998;28;20027;-71
2022/11/05 00:41:13;;;;;;;1.67;1.17;;;10.60;99.90;;;;;;4971880;28;20050;-71
2022/11/05 00:46:23;;;;;;;5.72;1.85;;;10.50;99.90;;;;;;4970769;28;20045;-71
2022/11/05 00:51:33;;;;;;;5.88;1.75;;;10.50;99.90;;;;;;4971574;28;20030;-71
2022/11/05 00:53:59;;;;;;;3.05;2.05;;;10.40;99.90;;;;;;4971461;28;20558;-71
2022/11/05 00:56:24;;;;;;;3.10;1.52;;;10.40;99.90;;;;;;4971416;28;20031;-70
2022/11/05 00:58:50;;;;;;;6.90;1.80;;;10.40;99.90;;;;;;4970461;28;20094;-71
2022/11/05 01:01:16;;;;;;;4.45;2.10;;;10.40;99.90;;;;;;4971638;28;20031;-71
2022/11/05 01:03:41;;;;;;;5.00;2.15;;;10.30;99.90;;;;;;4971233;28;20039;-71
2022/11/05 01:06:13;;;;;;;7.75;2.20;;;10.40;99.90;;;;;;4971555;28;20038;-71
2022/11/05 01:08:41;;;;;;;7.55;1.85;;;10.30;99.90;;;;;;4972799;28;20031;-71
2022/11/05 01:11:31;;;;;;;2.63;1.65;;;10.30;99.90;;;;;;4974018;28;20904;-71
2022/11/05 01:14:09;;;;;;;3.97;2.07;;;10.40;99.90;;;;;;4974783;28;20031;-71
2022/11/05 01:16:36;;;;;;;3.20;1.52;;;10.40;99.90;;;;;;4973886;28;20282;-71
2022/11/05 01:19:04;;;;;;;5.10;1.85;;;10.30;99.90;;;;;;4974962;28;20147;-71
2022/11/05 01:21:30;;;;;;;3.45;1.88;;;10.30;99.90;;;;;;4973708;28;20042;-71
2022/11/05 01:23:56;;;;;;;3.03;1.75;;;10.30;99.90;;;;;;4974375;28;20059;-71
2022/11/05 01:26:22;;;;;;;1.90;1.55;;;10.30;99.90;;;;;;4973833;28;20039;-71
2022/11/05 01:28:52;;;;;;;8.90;1.20;;;10.30;99.90;;;;;;4974805;28;20023;-71
2022/11/05 01:31:19;;;;;;;7.77;2.40;;;10.30;99.90;;;;;;4973435;28;20035;-71
2022/11/05 01:33:45;;;;;;;1.92;1.27;;;10.30;99.90;;;;;;4974598;28;20472;-71
2022/11/05 01:36:10;;;;;;;3.53;1.80;;;10.30;99.90;;;;;;4974587;28;20042;-71
2022/11/05 01:38:36;;;;;;;3.30;1.42;;;10.30;99.90;;;;;;4973442;28;20489;-71
2022/11/05 01:41:03;;;;;;;3.42;1.38;;;10.30;99.90;;;;;;4974745;28;20078;-70
2022/11/05 01:43:58;;;;;;;3.55;1.58;;;10.30;99.90;;;;;;4973184;28;20383;-71
2022/11/05 01:46:40;;;;;;;10.75;1.98;;;10.20;99.90;;;;;;4973363;28;20031;-71
2022/11/05 01:49:35;;;;;;;2.85;1.50;;;10.20;99.90;;;;;;4973357;28;20082;-71
2022/11/05 01:52:03;;;;;;;8.15;2.22;;;10.30;99.90;;;;;;4949074;28;20506;-71
2022/11/05 01:54:31;;;;;;;2.95;1.45;;;10.20;99.90;;;;;;4972668;28;20042;-71
2022/11/05 01:57:07;;;;;;;3.67;1.52;;;10.20;99.90;;;;;;4974523;28;20034;-71
2022/11/05 01:59:50;;;;;;;5.35;1.67;;;10.30;99.90;;;;;;4974235;28;20490;-71
2022/11/05 02:02:17;;;;;;;4.30;2.22;;;10.20;99.90;;;;;;4973265;28;20037;-71
2022/11/05 02:04:49;;;;;;;15.40;1.63;;;10.20;99.90;;;;;;4954358;28;20050;-71
2022/11/05 02:07:16;;;;;;;4.53;1.70;;;10.20;99.90;;;;;;4967291;28;20031;-71
2022/11/05 02:10:07;;;;;;;2.03;1.20;;;10.30;99.90;;;;;;4973748;28;20060;-71
2022/11/05 02:12:35;;;;;;;;;;;10.30;99.90;;;;;;4973018;28;20058;-71
2022/11/05 02:15:01;;;;;;;5.28;1.95;;;10.20;99.90;;;;;;4972541;28;19914;-70
2022/11/05 02:17:42;;;;;;;3.65;1.85;;;10.20;99.90;;;;;;4973858;28;20030;-71
2022/11/05 02:21:14;;;;;;;5.22;2.45;;;10.20;99.90;;;;;;4973474;28;20046;-71
2022/11/05 02:24:09;;;;;;;3.28;1.45;;;10.20;99.90;;;;;;4928673;29;20047;-71
2022/11/05 02:27:25;;;;;;;6.38;1.77;;;10.20;99.90;;;;;;4913669;29;20055;-71
2022/11/05 02:30:24;;;;;;;2.55;1.33;;;10.20;99.90;;;;;;4954551;28;20097;-71
2022/11/05 02:33:21;;;;;;;3.70;1.77;;;10.20;99.90;;;;;;4954323;28;20094;-71
2022/11/05 02:36:43;;;;;;;4.20;2.28;;;10.20;99.90;;;;;;4954216;28;20475;-71
2022/11/05 02:39:55;;;;;;;2.70;2.00;;;10.20;99.90;;;;;;4954272;28;20118;-71
2022/11/05 02:42:32;;;;;;;;;;;10.20;99.90;;;;;;4970372;28;20035;-71
2022/11/05 02:45:33;;;;;;;4.35;1.77;;;10.20;99.90;;;;;;5003521;28;19914;-71
2022/11/05 02:48:26;;;;;;;8.02;2.05;;;10.20;99.90;;;;;;4973353;28;20026;-71
2022/11/05 02:51:15;;;;;;;4.18;2.63;;;10.20;99.90;;;;;;4973343;28;20035;-71
2022/11/05 02:54:36;;;;;;;3.30;1.73;;;10.20;99.90;;;;;;4971650;28;20110;-70
2022/11/05 02:57:03;;;;;;;3.63;1.95;;;10.20;99.90;;;;;;4965344;28;20051;-71
2022/11/05 02:59:30;;;;;;;3.55;1.80;;;10.20;99.90;;;;;;4972528;28;20039;-71
2022/11/05 03:01:57;;;;;;;7.03;3.03;;;10.20;99.90;;;;;;4972555;28;20042;-71
2022/11/05 03:04:25;;;;;;;6.75;2.42;;;10.20;99.90;;;;;;4972445;28;20069;-71
2022/11/05 03:07:05;;;;;;;7.10;3.30;;;10.10;99.90;;;;;;4972882;28;20128;-71
2022/11/05 03:09:46;;;;;;;5.00;2.80;;;10.10;99.90;;;;;;4972605;28;20483;-71
2022/11/05 03:12:42;;;;;;;4.75;2.45;;;10.10;99.90;;;;;;4971725;28;20702;-71
2022/11/05 03:15:07;;;;;;;9.07;3.33;;;10.10;99.90;;;;;;4972088;28;20054;-71
2022/11/05 03:18:02;;;;;;;9.20;3.80;;;10.00;99.90;;;;;;4971496;28;20395;-70
2022/11/05 03:21:08;;;;;;;6.85;3.75;;;9.90;99.90;;;;;;4987162;28;20045;-71
2022/11/05 03:23:45;;;;;;;10.82;4.25;;;9.90;99.90;;;;;;4970889;28;20516;-71
2022/11/05 03:26:39;;;;;;;8.43;3.42;;;9.90;99.90;;;;;;4972496;28;20043;-71
2022/11/05 03:29:30;;;;;;;7.15;4.10;;;9.90;99.90;;;;;;4971406;28;20057;-71
2022/11/05 03:31:58;;;;;;;6.38;3.35;;;9.90;99.90;;;;;;4970349;28;20039;-71
2022/11/05 03:34:34;;;;;;;6.57;3.22;;;10.00;99.90;;;;;;4970995;28;20030;-72
2022/11/05 03:37:02;;;;;;;7.47;3.88;;;10.00;99.90;;;;;;4971005;28;20114;-71
2022/11/05 03:39:34;;;;;;;8.48;4.63;;;10.00;99.90;;;;;;4971227;28;20573;-71
2022/11/05 03:42:03;;;;;;;6.72;3.63;;;10.00;99.90;;;;;;4955297;28;20037;-69
2022/11/05 03:44:33;;;;;;;7.85;3.97;;;10.00;99.90;;;;;;4971029;28;20035;-70
2022/11/05 03:47:12;;;;;;;6.47;3.50;;;10.10;99.90;;;;;;4971190;28;20027;-69
2022/11/05 03:49:47;;;;;;;8.10;4.10;;;10.00;99.90;;;;;;4971251;28;20034;-71
2022/11/05 03:52:20;;;;;;;7.97;4.13;;;10.00;99.90;;;;;;4971223;28;20472;-71
2022/11/05 03:54:46;;;;;;;9.68;4.00;;;10.10;99.90;;;;;;4970586;28;20114;-71
2022/11/05 03:57:24;;;;;;;8.75;2.72;;;10.10;99.90;;;;;;4971756;28;20054;-71
2022/11/05 03:59:50;;;;;;;6.65;3.58;;;10.10;99.90;;;;;;4971236;28;20032;-71
2022/11/05 04:02:20;;;;;;;4.75;2.75;;;10.10;99.90;;;;;;4968314;28;20050;-71
2022/11/05 04:04:46;;;;;;;7.50;3.88;;;10.10;99.90;;;;;;4970449;28;20030;-71
2022/11/05 04:15:28;;;;;;;6.22;1.75;;;10.00;99.90;;;;;;4971124;28;20050;-71
2022/11/05 04:17:57;;;;;;;4.85;2.17;;;10.00;99.90;;;;;;4987423;28;20090;-71
2022/11/05 04:25:55;;;;;;;5.03;3.08;;;9.90;99.90;;;;;;4971471;28;20027;-71
2022/11/05 04:30:17;;;;;;;4.15;2.83;;;9.90;99.90;;;;;;4970492;28;20039;-71
2022/11/05 04:31:06;;;;;;;5.30;2.38;;;9.90;99.90;;;;;;4971280;28;20053;-69
2022/11/05 04:33:32;;;;;;;2.88;1.75;;;9.80;99.90;;;;;;4971399;28;20035;-69
2022/11/05 04:35:59;;;;;;;3.13;2.00;;;9.80;99.90;;;;;;4971245;28;20033;-69
2022/11/05 04:38:24;;;;;;;3.13;1.63;;;9.80;99.90;;;;;;4971659;28;20029;-69
2022/11/05 04:40:50;;;;;;;3.75;2.25;;;9.80;99.90;;;;;;4970136;28;20394;-70
2022/11/05 04:43:18;;;;;;;4.60;2.38;;;9.80;99.90;;;;;;4972377;28;20038;-69
2022/11/05 04:45:44;;;;;;;3.97;1.67;;;9.80;99.90;;;;;;4974980;28;20062;-69
2022/11/05 04:48:10;;;;;;;6.13;2.85;;;9.80;99.90;;;;;;4974475;28;20532;-70
2022/11/05 04:50:36;;;;;;;2.33;1.48;;;9.70;99.90;;;;;;4973799;28;20031;-70
2022/11/05 04:53:01;;;;;;;1.92;1.15;;;9.70;99.90;;;;;;4974061;28;20104;-70
2022/11/05 04:55:30;;;;;;;4.75;1.73;;;9.70;99.90;;;;;;4973540;28;20474;-70
2022/11/05 04:57:56;;;;;;;2.67;1.42;;;9.70;99.90;;;;;;4975198;28;20216;-69
2022/11/05 05:00:23;;;;;;;3.53;1.98;;;9.70;99.90;;;;;;4973774;28;20097;-70
2022/11/05 05:02:49;;;;;;;2.38;1.20;;;9.70;99.90;;;;;;4974193;28;20030;-70
2022/11/05 05:05:15;;;;;;;0.98;0.77;;;9.60;99.90;;;;;;4973720;28;20037;-70
2022/11/05 05:07:41;;;;;;;5.38;1.35;;;9.70;99.90;;;;;;4975095;28;20475;-69
2022/11/05 05:10:08;;;;;;;3.63;1.60;;;9.70;99.90;;;;;;4973770;28;20446;-69
2022/11/05 05:12:34;;;;;;;3.58;1.15;;;9.70;99.90;;;;;;4973506;28;20030;-69
2022/11/05 05:15:00;;;;;;;1.80;1.10;;;9.70;99.90;;;;;;4953625;29;20395;-69
2022/11/05 05:17:26;;;;;;;2.72;1.40;;;9.60;99.90;;;;;;4954322;29;20038;-69
2022/11/05 05:22:36;;;;;;;3.08;1.33;;;9.60;99.90;;;;;;4955280;28;20043;-69
2022/11/05 05:25:03;;;;;;;2.05;1.23;;;9.50;99.90;;;;;;4955067;29;20442;-70
2022/11/05 05:27:29;;;;;;;1.92;1.13;;;9.50;99.90;;;;;;4954190;29;20039;-69
2022/11/05 05:29:56;;;;;;;3.58;1.42;;;9.40;99.90;;;;;;4954049;29;20070;-69
2022/11/05 05:32:23;;;;;;;1.45;0.95;;;9.40;99.90;;;;;;4954125;28;20035;-69
2022/11/05 05:34:49;;;;;;;3.30;1.70;;;9.40;99.90;;;;;;4953478;29;20094;-70
2022/11/05 05:37:15;;;;;;;7.30;2.10;;;9.40;99.90;;;;;;4954342;28;20035;-70
2022/11/05 05:39:43;;;;;;;2.58;1.30;;;9.40;99.90;;;;;;4954863;28;20034;-70
2022/11/05 05:42:10;;;;;;;4.88;1.50;;;9.40;99.90;;;;;;4954959;28;20483;-70
2022/11/05 05:44:35;;;;;;;2.00;1.30;;;9.40;99.90;;;;;;4953347;29;20034;-69
2022/11/05 05:47:01;;;;;;;1.38;1.17;;;9.40;99.90;;;;;;4955122;28;20027;-69
2022/11/05 05:49:27;;;;;;;2.53;1.23;;;9.40;99.90;;;;;;4954895;28;20102;-70
2022/11/05 05:51:53;;;;;;;3.80;1.40;;;9.40;99.90;;;;;;4953601;28;20079;-69
2022/11/05 05:54:18;;;;;;;4.18;1.17;;;9.40;99.90;;;;;;4953921;28;20083;-69
2022/11/05 05:56:44;;;;;;;1.85;1.30;;;9.40;99.90;;;;;;4954061;29;20038;-70
2022/11/05 05:59:11;;;;;;;2.47;1.25;;;9.40;99.90;;;;;;4953660;29;20078;-69
2022/11/05 06:01:37;;;;;;;1.50;0.93;;;9.40;99.90;;;;;;4954287;28;20027;-70
2022/11/05 06:04:03;;;;;;;3.72;1.27;;;9.40;99.90;;;;;;4954461;28;20095;-69
2022/11/05 06:06:29;;;;;;;1.20;0.82;;;9.40;99.90;;;;;;4953002;29;20469;-69
2022/11/05 06:08:55;;;;;;;1.48;0.98;;;9.40;99.90;;;;;;4954785;28;20043;-70
2022/11/05 06:11:25;;;;;;;3.95;1.98;;;9.40;99.90;;;;;;4963210;28;20487;-69
2022/11/05 06:13:51;;;;;;;1.27;0.77;;;9.40;99.90;;;;;;4972446;28;20066;-69
2022/11/05 06:16:18;;;;;;;1.17;1.05;;;9.40;99.90;;;;;;4973231;28;20062;-69
2022/11/05 06:18:44;;;;;;;1.55;0.70;;;9.40;99.90;;;;;;4973505;28;20026;-69
2022/11/05 06:21:13;;;;;;;3.33;0.95;;;9.40;99.90;;;;;;4971983;28;20050;-69
2022/11/05 06:23:41;;;;;;;2.17;0.70;;;9.30;99.90;;;;;;4972006;28;20561;-70
2022/11/05 06:26:14;;;;;;;1.75;1.08;;;9.30;99.90;;;;;;4972102;28;20070;-70
2022/11/05 06:28:41;;;;;;;3.92;1.38;;;9.40;99.90;;;;;;4972317;28;20035;-69
2022/11/05 06:31:11;;;;;;;7.88;1.40;;;9.40;99.90;;;;;;4972545;28;20254;-70
2022/11/05 06:33:37;;;;;;;2.25;1.40;;;9.40;99.90;;;;;;4971842;28;20049;-69
2022/11/05 06:36:05;;;;;;;3.45;1.35;;;9.30;99.90;;;;;;4971982;28;20454;-69
2022/11/05 06:38:33;;;;;;;3.78;1.58;;;9.30;99.90;;;;;;4973101;28;20446;-69
2022/11/05 06:41:00;;;;;;;4.75;1.48;;;9.40;99.90;;;;;;4971990;28;20029;-69
2022/11/05 06:43:27;;;;;;;3.03;1.33;;;9.40;99.90;;;;;;4971487;28;20375;-69
2022/11/05 06:45:56;;;;;;;2.03;1.30;;;9.40;99.90;;;;;;4972060;28;20390;-69
2022/11/05 06:48:24;;;;;;;3.97;2.03;;;9.40;99.90;;;;;;4971867;28;20498;-70
2022/11/05 06:50:49;;;;;;;4.82;2.03;;;9.50;99.90;;;;;;4971677;28;20042;-72
2022/11/05 06:53:15;;;;;;;3.47;1.42;;;9.50;99.90;;;;;;4968494;28;20047;-72
2022/11/05 06:55:43;;;;;;;4.18;1.80;;;9.50;99.90;;;;;;4935854;29;20125;-70
2022/11/05 06:58:09;;;;;;;2.97;1.83;;;9.50;99.90;;;;;;4953632;28;20093;-71
2022/11/05 07:00:35;;;;;;;3.30;1.90;;;9.50;99.90;;;;;;4954006;28;20491;-72
2022/11/05 07:03:09;;;;;;;4.70;2.17;;;9.50;99.90;;;;;;4972377;28;20038;-71
2022/11/05 07:05:42;;;;;;;3.85;2.05;;;9.50;99.90;;;;;;4972029;28;20038;-72
2022/11/05 07:08:08;;;;;;;4.47;2.30;;;9.50;99.90;;;;;;4971167;28;20038;-73
2022/11/05 07:10:33;;;;;;;7.22;1.75;;;9.50;99.90;;;;;;4969489;28;20105;-73
2022/11/05 07:12:59;;;;;;;3.28;2.03;;;9.60;99.90;;;;;;4972003;28;20050;-73
2022/11/05 07:15:25;;;;;;;6.20;2.72;;;9.60;99.90;;;;;;4971685;28;20088;-73
2022/11/05 07:17:59;;;;;;;6.07;2.13;;;9.60;99.90;;;;;;4972210;28;20053;-72
2022/11/05 07:20:26;;;;;;;5.20;1.98;;;9.60;99.90;;;;;;4971570;28;20046;-72
2022/11/05 07:23:01;;;;;;;5.95;2.42;;;9.70;99.90;;;;;;4971899;28;20093;-73
2022/11/05 07:25:28;;;;;;;7.63;1.75;;;9.60;99.90;;;;;;4972290;28;20046;-73
2022/11/05 07:27:53;;;;;;;3.22;1.48;;;9.70;99.90;;;;;;4969944;28;20030;-73
2022/11/05 07:30:19;;;;;;;3.20;1.90;;;9.70;99.90;;;;;;4972553;28;20117;-74
2022/11/05 07:32:45;;;;;;;10.10;1.77;;;9.70;99.90;;;;;;4971915;28;20109;-74
2022/11/05 07:35:10;;;;;;;3.25;1.80;;;9.80;99.90;;;;;;4972107;28;20045;-71
2022/11/05 07:37:49;;;;;;;4.95;1.75;;;9.80;99.90;;;;;;4967395;28;20534;-71
2022/11/05 07:40:19;;;;;;;11.57;1.65;;;9.80;99.90;;;;;;4953154;28;20027;-71
2022/11/05 07:42:54;;;;;;;7.65;2.70;;;9.90;99.90;;;;;;4951525;28;20046;-72
2022/11/05 07:45:20;;;;;;;5.43;2.80;;;9.90;99.90;;;;;;4952566;28;20042;-72
2022/11/05 07:47:47;;;;;;;5.53;2.15;;;9.90;99.90;;;;;;4951579;28;20039;-72
2022/11/05 07:50:14;;;;;;;6.43;2.10;;;9.90;99.90;;;;;;4952979;28;20027;-70
2022/11/05 07:52:40;;;;;;;5.13;2.10;;;10.00;99.90;;;;;;4951272;28;20041;-73
2022/11/05 07:55:07;;;;;;;6.25;2.20;;;10.00;99.90;;;;;;4961830;28;20039;-74
2022/11/05 07:57:43;;;;;;;4.35;1.67;;;10.00;99.90;;;;;;4965874;28;20031;-73
2022/11/05 08:00:13;;;;;;;4.70;2.17;;;10.10;99.90;;;;;;4954469;28;20031;-73
2022/11/05 08:02:39;;;;;;;5.07;2.42;;;10.10;99.90;;;;;;4970620;28;20031;-73
2022/11/05 08:05:06;;;;;;;4.53;2.45;;;10.10;99.90;;;;;;4969287;28;20049;-72
2022/11/05 08:07:32;;;;;;;5.25;2.20;;;10.10;99.90;;;;;;4986881;28;20106;-71
2022/11/05 08:09:57;;;;;;;10.40;3.15;;;10.20;99.90;;;;;;4971763;28;20026;-73
2022/11/05 08:12:23;;;;;;;4.60;1.73;;;10.20;99.90;;;;;;4952970;28;20035;-73
2022/11/05 08:14:50;;;;;;;5.55;2.70;;;10.20;99.90;;;;;;4952246;28;20044;-72
2022/11/05 08:17:16;;;;;;;4.80;2.45;;;10.30;99.90;;;;;;4952583;28;20027;-72
2022/11/05 08:19:42;;;;;;;4.22;2.40;;;10.30;99.90;;;;;;4967012;28;20030;-74
2022/11/05 08:22:08;;;;;;;3.90;2.60;;;10.40;99.90;;;;;;4952118;28;20039;-71
2022/11/05 08:24:34;;;;;;;5.82;2.78;;;10.50;99.90;;;;;;4952450;28;20034;-72
2022/11/05 08:26:59;;;;;;;5.25;2.55;;;10.60;99.90;;;;;;4966454;28;20030;-74
2022/11/05 08:29:25;;;;;;;4.25;2.70;;;10.70;99.90;;;;;;4971550;28;20093;-74
2022/11/05 08:31:51;;;;;;;4.50;2.55;;;10.70;99.90;;;;;;4971499;28;20038;-73
2022/11/05 08:34:17;;;;;;;4.13;2.30;;;10.70;99.90;;;;;;4971398;28;20035;-73
2022/11/05 08:36:45;;;;;;;9.88;3.47;;;10.80;99.90;;;;;;4971674;28;20054;-74
2022/11/05 08:39:12;;;;;;;3.97;2.70;;;10.80;99.90;;;;;;4956078;28;20031;-73
2022/11/05 08:41:39;;;;;;;6.00;1.98;;;10.80;99.90;;;;;;4952444;28;20027;-73
2022/11/05 08:44:07;;;;;;;5.97;2.70;;;10.90;99.90;;;;;;4951515;28;20038;-72
2022/11/05 08:46:36;;;;;;;5.45;2.38;;;10.90;99.90;;;;;;4952717;28;20031;-74
2022/11/05 08:49:03;;;;;;;6.43;1.90;;;10.80;99.90;;;;;;4966985;28;20093;-73
2022/11/05 08:51:28;;;;;;;4.00;1.83;;;10.90;99.90;;;;;;4952535;28;20055;-73
2022/11/05 08:53:54;;;;;;;6.82;2.83;;;11.00;99.90;;;;;;4952094;28;20535;-73
2022/11/05 08:56:20;;;;;;;4.80;2.17;;;11.00;99.90;;;;;;4959846;28;20058;-73
2022/11/05 08:58:46;;;;;;;4.80;2.33;;;11.00;99.90;;;;;;4970292;28;20053;-73
2022/11/05 09:01:11;;;;;;;7.47;2.53;;;11.00;99.90;;;;;;4971250;28;20475;-73
2022/11/05 09:03:37;;;;;;;11.60;2.85;;;11.00;99.90;;;;;;4971191;28;20086;-73
2022/11/05 09:06:03;;;;;;;10.32;2.15;;;11.10;99.90;;;;;;4986166;28;20035;-72
2022/11/05 09:08:29;;;;;;;5.38;2.72;;;11.20;99.90;;;;;;4971663;28;20367;-72
2022/11/05 09:10:55;;;;;;;9.70;2.00;;;11.00;99.90;;;;;;4971191;28;20083;-73
2022/11/05 09:13:21;;;;;;;5.72;2.03;;;11.00;99.90;;;;;;4971138;28;20035;-73
2022/11/05 09:15:49;;;;;;;5.28;1.90;;;10.90;99.90;;;;;;4971274;28;20512;-71
2022/11/05 09:18:16;;;;;;;7.82;3.65;;;11.00;99.90;;;;;;4969899;28;20042;-71
2022/11/05 09:20:42;;;;;;;5.22;2.83;;;11.00;99.90;;;;;;4971439;28;20102;-71
2022/11/05 09:23:09;;;;;;;4.70;2.28;;;11.00;99.90;;;;;;4969366;28;20117;-71
2022/11/05 09:25:35;;;;;;;3.75;2.40;;;11.00;99.90;;;;;;4970976;28;20027;-74
2022/11/05 09:28:18;;;;;;;5.53;2.63;;;11.00;99.90;;;;;;4971032;28;20741;-71
2022/11/05 09:30:53;;;;;;;7.82;2.60;;;10.90;99.90;;;;;;4972750;28;20034;-71
2022/11/05 09:33:22;;;;;;;4.82;2.65;;;11.00;99.90;;;;;;4974151;28;20062;-72
2022/11/05 09:35:48;;;;;;;5.93;3.20;;;10.90;99.90;;;;;;4974295;28;20023;-71
2022/11/05 09:38:14;;;;;;;4.90;2.47;;;11.00;99.90;;;;;;4974492;28;20027;-72
2022/11/05 09:41:01;;;;;;;4.28;2.45;;;11.00;99.90;;;;;;4974224;28;20034;-72
2022/11/05 09:43:41;;;;;;;6.82;2.38;;;11.20;99.90;;;;;;4973065;28;20434;-72
2022/11/05 09:46:33;;;;;;;4.93;2.20;;;11.30;99.90;;;;;;4989110;28;20049;-72
2022/11/05 09:49:06;;;;;;;5.50;2.25;;;11.40;99.90;;;;;;4973135;28;20059;-72
2022/11/05 09:51:34;;;;;;;3.78;1.88;;;11.50;99.90;;;;;;4972208;28;20035;-71
2022/11/05 09:54:00;;;;;;;8.48;2.65;;;11.90;99.90;;;;;;4972479;28;20027;-71
2022/11/05 09:56:30;;;;;;;14.90;3.05;;;12.60;99.90;;;;;;4972277;28;20041;-72
2022/11/05 09:59:00;;;;;;;5.35;2.38;;;13.90;99.90;;;;;;4970618;28;20118;-73
2022/11/05 10:01:34;;;;;;;5.20;2.78;;;14.50;99.90;;;;;;4971896;28;20027;-74
2022/11/05 10:04:12;;;;;;;5.55;2.92;;;14.20;99.90;;;;;;4965271;28;20479;-72
2022/11/05 10:06:50;;;;;;;7.13;3.03;;;14.30;99.90;;;;;;4965288;28;20113;-69
2022/11/05 10:09:44;;;;;;;11.23;2.58;;;15.40;99.90;;;;;;4972543;28;20046;-71
2022/11/05 10:12:17;;;;;;;11.40;2.80;;;16.40;99.90;;;;;;4968697;28;20035;-72
2022/11/05 10:14:50;;;;;;;8.38;2.70;;;17.50;99.90;;;;;;4974092;28;20030;-72
2022/11/05 10:17:26;;;;;;;4.80;2.15;;;18.10;99.90;;;;;;4972802;28;20034;-72
2022/11/05 10:20:01;;;;;;;10.18;3.20;;;19.30;99.80;;;;;;4972181;28;20031;-72
2022/11/05 10:22:27;;;;;;;7.95;3.97;;;20.70;96.70;;;;;;4972515;28;20046;-72
2022/11/05 10:24:54;;;;;;;4.85;2.10;;;18.10;97.50;;;;;;4973247;28;20023;-72
2022/11/05 10:27:34;;;;;;;11.18;2.78;;;18.60;99.70;;;;;;4973518;28;20491;-72
2022/11/05 10:30:00;;;;;;;3.83;1.97;;;18.80;96.30;;;;;;4971803;28;20031;-72
2022/11/05 10:32:36;;;;;;;6.30;3.03;;;19.10;98.10;;;;;;4973464;28;20383;-72
2022/11/05 10:35:06;;;;;;;4.97;2.30;;;19.40;96.40;;;;;;4956185;28;20642;-70
2022/11/05 10:37:32;;;;;;;11.85;2.10;;;17.40;98.50;;;;;;4972511;28;20038;-72
2022/11/05 10:39:58;;;;;;;7.90;2.22;;;17.70;98.50;;;;;;4973225;28;20054;-71
2022/11/05 10:43:03;;;;;;;7.55;2.30;;;16.80;99.90;;;;;;4972952;28;20030;-71
2022/11/05 10:45:45;;;;;;;4.72;2.30;;;15.80;99.90;;;;;;4971885;28;20117;-70
2022/11/05 10:48:51;;;;;;;4.82;2.42;;;15.60;99.90;;;;;;4972007;28;20039;-74
2022/11/05 10:51:17;;;;;;;6.40;2.33;;;14.70;99.90;;;;;;4970083;28;20066;-75
2022/11/05 10:53:56;;;;;;;10.75;2.58;;;14.50;99.90;;;;;;4970870;28;20039;-73
2022/11/05 10:56:38;;;;;;;7.20;2.53;;;14.30;99.90;;;;;;4969966;28;20039;-74
2022/11/05 10:59:19;;;;;;;8.02;2.20;;;14.00;99.90;;;;;;4971557;28;20054;-73
2022/11/05 11:01:46;;;;;;;3.65;1.88;;;14.00;99.90;;;;;;4965542;28;20415;-72
2022/11/05 11:04:26;;;;;;;5.97;2.05;;;13.90;99.90;;;;;;4970845;28;20018;-73
2022/11/05 11:06:58;;;;;;;7.72;2.83;;;14.10;99.90;;;;;;4971949;28;20566;-72
2022/11/05 11:09:35;;;;;;;4.97;1.70;;;14.90;99.90;;;;;;4973099;28;20026;-75
2022/11/05 11:12:11;;;;;;;9.15;2.83;;;15.70;99.90;;;;;;4971276;28;20423;-72
2022/11/05 11:14:37;;;;;;;5.38;2.22;;;15.90;99.90;;;;;;4967718;28;20336;-73
2022/11/05 11:17:25;;;;;;;3.95;1.60;;;18.30;99.90;;;;;;4971517;28;20027;-73
2022/11/05 11:20:10;;;;;;;6.57;2.00;;;17.60;99.90;;;;;;4970828;28;20019;-74
2022/11/05 11:22:35;;;;;;;7.25;2.10;;;17.80;99.90;;;;;;4971821;28;20034;-73
2022/11/05 11:25:28;;;;;;;6.65;2.25;;;20.00;98.00;;;;;;4970455;28;20105;-74
2022/11/05 11:27:54;;;;;;;4.43;1.77;;;21.20;93.30;;;;;;4935849;29;20404;-72
2022/11/05 11:30:21;;;;;;;5.18;1.70;;;21.70;93.20;;;;;;4961767;28;20038;-73
2022/11/05 11:32:48;;;;;;;5.53;1.70;;;22.00;90.50;;;;;;4970446;28;20046;-72
2022/11/05 11:35:22;;;;;;;9.82;2.00;;;22.40;88.70;;;;;;4971157;28;20047;-73
2022/11/05 11:37:50;;;;;;;2.70;1.58;;;22.10;91.30;;;;;;4971662;28;20030;-73
2022/11/05 11:40:37;;;;;;;6.25;2.00;;;22.20;88.90;;;;;;4971026;28;20121;-73
2022/11/05 11:43:23;;;;;;;8.77;2.45;;;23.20;86.30;;;;;;4968638;28;20018;-75
2022/11/05 11:45:52;;;;;;;14.07;7.22;;;21.90;88.50;;;;;;4972651;28;20077;-74
2022/11/05 11:48:26;;;;;;;6.22;2.40;;;21.00;89.80;;;;;;4989779;28;20644;-74
2022/11/05 11:50:52;;;;;;;3.83;1.63;;;19.90;91.20;;;;;;4976865;28;20038;-75
2022/11/05 11:53:20;;;;;;;2.60;1.48;;;20.00;90.50;;;;;;4969064;28;20037;-75
2022/11/05 11:56:13;;;;;;;12.73;2.63;;;19.30;91.30;;;;;;4970756;28;20541;-72
2022/11/05 11:58:50;;;;;;;3.58;2.10;;;18.50;93.70;;;;;;4952364;28;20117;-74
2022/11/05 12:02:05;;;;;;;11.23;3.75;;;19.10;92.60;;;;;;4967472;28;20039;-73
2022/11/05 12:04:42;;;;;;;6.38;2.05;;;18.30;94.20;;;;;;4971090;28;20027;-73
2022/11/05 12:07:23;;;;;;;3.88;1.85;;;19.20;92.50;;;;;;4971269;28;20042;-72
2022/11/05 12:10:31;;;;;;;5.45;1.30;;;18.10;93.10;;;;;;4971245;28;20069;-74
2022/11/05 12:13:22;;;;;;;9.38;2.25;;;18.10;93.20;;;;;;4951834;28;20058;-75
2022/11/05 12:15:54;;;;;;;2.93;1.47;;;18.00;92.40;;;;;;4968290;28;20101;-73
2022/11/05 12:19:15;;;;;;;12.80;2.47;;;16.90;94.90;;;;;;4969895;28;20352;-74
2022/11/05 12:22:28;;;;;;;6.28;1.52;;;17.90;93.70;;;;;;4970118;28;20035;-74
2022/11/05 12:25:27;;;;;;;3.33;1.77;;;17.30;94.50;;;;;;4960112;28;20031;-75
2022/11/05 12:28:26;;;;;;;4.43;2.03;;;16.90;95.30;;;;;;4969833;28;20033;-74
2022/11/05 12:31:20;;;;;;;3.13;1.75;;;15.50;96.80;;;;;;4971076;28;20034;-75
2022/11/05 12:34:00;;;;;;;7.07;1.83;;;15.40;98.60;;;;;;4970950;28;20402;-76
2022/11/05 12:37:08;;;;;;;3.25;1.52;;;15.00;99.30;;;;;;4968804;28;20037;-73
2022/11/05 12:39:59;;;;;;;3.72;1.75;;;14.90;99.90;;;;;;4968612;28;20490;-73
2022/11/05 12:43:00;;;;;;;8.38;1.60;;;14.90;99.90;;;;;;4969481;28;20023;-73
2022/11/05 12:46:25;;;;;;;6.35;1.65;;;14.70;99.90;;;;;;4970849;28;20509;-72
2022/11/05 12:49:11;;;;;;;11.15;2.28;;;14.60;99.90;;;;;;4935343;28;20051;-73
2022/11/05 12:52:16;;;;;;;7.32;2.15;;;14.10;99.90;;;;;;4963881;28;20047;-72
2022/11/05 12:55:16;;;;;;;5.05;2.15;;;14.10;99.90;;;;;;4970366;28;20035;-72
2022/11/05 12:57:47;;;;;;;7.53;3.17;;;14.00;99.90;;;;;;4971121;28;20565;-73
2022/11/05 13:00:16;;;;;;;4.32;2.60;;;13.80;99.90;;;;;;4969503;28;20045;-72
2022/11/05 13:03:20;;;;;;;3.00;1.80;;;13.70;99.90;;;;;;4969574;28;20121;-72
2022/11/05 13:06:34;;;;;;;9.77;2.88;;;13.40;99.90;;;;;;4971764;28;20031;-73
2022/11/05 13:09:03;;;;;;;9.40;2.70;;;13.40;99.90;;;;;;4954961;28;20055;-73
2022/11/05 13:11:37;;;;;;;8.23;2.45;;;13.20;99.90;;;;;;4970000;28;20094;-74
2022/11/05 13:14:40;;;;;;;7.00;2.28;;;13.20;99.90;;;;;;4955374;28;20027;-73
2022/11/05 13:17:21;;;;;;;3.60;1.98;;;13.30;99.90;;;;;;4953096;29;20077;-73
2022/11/05 13:20:15;;;;;;;6.30;2.20;;;13.20;99.90;;;;;;4954674;29;20035;-73
2022/11/05 13:22:59;;;;;;;5.57;2.28;;;13.20;99.90;;;;;;4954018;28;20063;-74
2022/11/05 13:25:29;;;;;;;6.28;2.22;;;13.10;99.90;;;;;;4957288;28;20054;-73
2022/11/05 13:28:23;;;;;;;4.82;1.42;;;12.90;99.90;;;;;;4971132;28;20030;-73
2022/11/05 13:30:54;;;;;;;5.15;1.05;;;12.30;99.90;;;;;;4944948;28;20430;-73
2022/11/05 13:33:28;;;;;;;2.67;0.90;;;11.60;99.90;;;;;;4970788;28;20049;-74
2022/11/05 13:39:00;;;;;;;1.77;0.75;;;10.70;99.90;;;;;;4954777;29;20031;-74
2022/11/05 13:42:16;;;;;;;1.95;1.10;;;10.60;99.90;;;;;;4969580;28;20023;-72
2022/11/05 13:45:08;;;;;;;1.80;0.82;;;10.50;99.90;;;;;;4971415;28;20538;-74
2022/11/05 13:47:43;;;;;;;6.40;1.00;;;10.50;99.90;;;;;;4970094;28;20078;-73
2022/11/05 13:50:58;;;;;;;1.35;0.80;;;10.70;99.90;;;;;;4974176;28;20031;-72
2022/11/05 13:53:58;;;;;;;8.93;2.78;;;10.70;99.90;;;;;;4989266;28;20027;-73
2022/11/05 13:56:51;;;;;;;2.05;0.70;;;10.70;99.90;;;;;;4974011;28;20680;-73
2022/11/05 13:59:26;;;;;;;1.30;0.80;;;10.80;99.90;;;;;;4974105;28;20038;-73
2022/11/05 14:02:43;;;;;;;2.05;1.25;;;10.70;99.90;;;;;;4973689;28;20533;-72
2022/11/05 14:05:30;;;;;;;1.48;0.90;;;10.70;99.90;;;;;;4971949;28;20410;-72
2022/11/05 14:08:00;;;;;;;6.45;0.93;;;10.80;99.90;;;;;;4972760;28;20030;-72
2022/11/05 14:10:35;;;;;;;3.75;1.02;;;11.00;99.90;;;;;;4973927;28;20045;-73
2022/11/05 14:13:21;;;;;;;0.85;0.60;;;11.60;99.90;;;;;;4972766;28;20031;-74